Time;durP1;ratioP1;P1;durP2;ratioP2;P2;SDS_P1;SDS_P2;PMS_P1;PMS_P2;Temp;Humidity;BMP_temperature;BMP_pressure;BME280_temperature;BME280_humidity;BME280_pressure;Samples;Min_cycle;Max_cycle;Signal;HPM_P1;HPM_P2
2022/07/04 00:00:33;;;;;;;19.50;9.30;;;;;;;19.30;53.05;99076.92;105784;1278;97944;-67
2022/07/04 00:03:05;;;;;;;18.60;9.20;;;;;;;19.26;53.18;99079.38;105671;1278;108468;-69
2022/07/04 00:05:35;;;;;;;19.00;9.30;;;;;;;19.22;53.19;99076.41;105745;1278;97868;-69
2022/07/04 00:08:04;;;;;;;16.50;8.70;;;;;;;19.17;53.25;99072.89;105857;1278;95398;-69
2022/07/04 00:10:33;;;;;;;21.00;9.40;;;;;;;19.14;53.33;99075.57;105724;1277;112400;-69
2022/07/04 00:13:01;;;;;;;18.90;9.00;;;;;;;19.10;53.43;99072.42;105794;1278;96379;-68
2022/07/04 00:15:29;;;;;;;16.70;9.30;;;;;;;19.08;53.57;99075.59;105754;1277;108164;-68
2022/07/04 00:17:57;;;;;;;18.10;8.90;;;;;;;19.04;53.74;99072.38;105750;1278;97924;-67
2022/07/04 00:20:27;;;;;;;18.10;9.60;;;;;;;19.02;53.78;99065.60;105872;1277;97867;-68
2022/07/04 00:22:55;;;;;;;18.00;9.20;;;;;;;18.97;53.83;99066.51;105854;1278;111491;-69
2022/07/04 00:25:24;;;;;;;17.10;8.70;;;;;;;18.93;53.90;99068.16;105835;1279;96988;-69
2022/07/04 00:27:56;;;;;;;17.70;9.60;;;;;;;18.90;54.07;99068.29;105917;1278;108995;-68
2022/07/04 00:30:24;;;;;;;17.60;9.70;;;;;;;18.87;54.17;99067.27;105922;1278;97870;-69
2022/07/04 00:32:53;;;;;;;21.10;9.90;;;;;;;18.85;54.26;99065.95;105933;1278;97001;-69
2022/07/04 00:35:22;;;;;;;16.80;8.90;;;;;;;18.82;54.26;99067.83;105877;1277;111473;-69
2022/07/04 00:37:50;;;;;;;18.00;9.50;;;;;;;18.78;54.46;99068.26;105947;1277;97959;-68
2022/07/04 00:40:18;;;;;;;18.10;8.90;;;;;;;18.74;54.53;99064.34;105943;1277;108336;-68
2022/07/04 00:42:47;;;;;;;16.70;9.90;;;;;;;18.71;54.65;99065.39;105983;1278;98002;-68
2022/07/04 00:45:15;;;;;;;19.10;9.40;;;;;;;18.72;54.66;99064.44;105972;1278;97867;-69
2022/07/04 00:47:44;;;;;;;17.00;8.80;;;;;;;18.70;54.77;99064.84;105906;1278;112020;-68
2022/07/04 00:50:14;;;;;;;17.20;9.30;;;;;;;18.66;54.77;99062.95;105803;1277;97932;-68
2022/07/04 00:52:42;;;;;;;20.50;10.20;;;;;;;18.63;54.87;99061.45;105846;1278;108141;-69
2022/07/04 00:55:12;;;;;;;19.70;10.20;;;;;;;18.60;54.95;99060.83;105821;1280;95285;-68
2022/07/04 00:57:40;;;;;;;19.30;9.90;;;;;;;18.55;55.02;99052.38;105864;1278;97880;-69
2022/07/04 01:00:12;;;;;;;18.60;9.90;;;;;;;18.53;55.15;99051.19;105852;1278;111148;-70
2022/07/04 01:02:40;;;;;;;18.70;9.70;;;;;;;18.48;55.24;99050.94;105844;1278;97754;-68
2022/07/04 01:05:10;;;;;;;17.70;9.40;;;;;;;18.45;55.24;99049.15;105783;1278;108389;-69
2022/07/04 01:07:42;;;;;;;21.20;10.30;;;;;;;18.41;55.29;99045.02;105842;1278;97936;-68
2022/07/04 01:10:10;;;;;;;17.80;9.90;;;;;;;18.38;55.37;99045.15;105975;1278;97770;-68
2022/07/04 01:12:39;;;;;;;18.80;9.60;;;;;;;18.37;55.52;99045.71;106826;1278;112032;-67
2022/07/04 01:15:08;;;;;;;18.90;9.70;;;;;;;18.35;55.62;99042.44;105894;1279;96509;-69
2022/07/04 01:17:36;;;;;;;18.70;9.60;;;;;;;18.35;55.65;99041.83;105942;1278;108380;-69
2022/07/04 01:20:13;;;;;;;19.00;10.10;;;;;;;18.33;55.57;99040.15;105933;1279;95256;-70
2022/07/04 01:22:43;;;;;;;19.80;10.00;;;;;;;18.31;55.78;99041.76;106017;1277;95245;-68
2022/07/04 01:25:11;;;;;;;20.70;10.90;;;;;;;18.29;55.69;99043.80;105851;1278;112380;-69
2022/07/04 01:27:38;;;;;;;16.80;10.10;;;;;;;18.27;55.76;99043.86;105897;1278;97989;-68
2022/07/04 01:30:10;;;;;;;17.50;9.90;;;;;;;18.25;56.03;99044.39;105883;1279;108296;-69
2022/07/04 01:32:39;;;;;;;17.40;10.00;;;;;;;18.22;55.91;99037.71;105915;1279;96497;-69
2022/07/04 01:35:10;;;;;;;19.60;10.30;;;;;;;18.20;56.05;99040.85;105889;1279;97959;-69
2022/07/04 01:37:42;;;;;;;20.40;10.80;;;;;;;18.17;56.20;99039.37;105818;1278;111283;-69
2022/07/04 01:40:13;;;;;;;19.30;9.90;;;;;;;18.14;56.22;99039.66;105833;1278;97889;-68
2022/07/04 01:42:43;;;;;;;17.90;10.20;;;;;;;18.11;56.13;99037.97;105881;1278;105880;-69
2022/07/04 01:45:13;;;;;;;18.30;9.80;;;;;;;18.08;56.29;99039.34;105938;1278;97963;-69
2022/07/04 01:47:43;;;;;;;22.10;10.60;;;;;;;18.06;56.36;99040.81;105961;1278;97962;-69
2022/07/04 01:50:12;;;;;;;19.70;10.60;;;;;;;18.04;56.38;99039.80;105861;1278;111408;-68
2022/07/04 01:52:43;;;;;;;18.40;10.40;;;;;;;18.01;56.72;99040.45;105830;1279;95332;-68
2022/07/04 01:55:13;;;;;;;20.10;10.40;;;;;;;17.96;56.86;99040.02;105800;1278;107938;-68
2022/07/04 01:57:41;;;;;;;18.80;10.40;;;;;;;17.91;56.72;99041.58;105817;1280;97779;-69
2022/07/04 02:02:59;;;;;;;19.60;10.30;;;;;;;17.85;56.95;99045.98;105813;1278;111764;-70
2022/07/04 02:05:29;;;;;;;23.10;11.50;;;;;;;17.82;56.93;99046.80;105921;1279;97868;-67
2022/07/04 02:07:58;;;;;;;19.70;11.80;;;;;;;17.82;56.89;99046.87;105918;1278;107750;-69
2022/07/04 02:10:26;;;;;;;23.90;11.70;;;;;;;17.82;57.28;99045.83;105945;1279;97989;-71
2022/07/04 02:13:06;;;;;;;18.90;10.90;;;;;;;17.81;57.29;99049.42;105952;1279;96946;-70
2022/07/04 02:15:37;;;;;;;21.30;11.10;;;;;;;17.80;57.20;99051.39;105955;1278;112392;-69
2022/07/04 02:18:09;;;;;;;19.70;10.60;;;;;;;17.78;57.34;99051.04;106005;1280;96086;-68
2022/07/04 02:20:37;;;;;;;21.40;10.70;;;;;;;17.75;57.42;99050.95;105922;1279;108429;-66
2022/07/04 02:23:07;;;;;;;21.00;10.50;;;;;;;17.72;57.60;99055.20;105852;1279;97995;-68
2022/07/04 02:25:35;;;;;;;19.00;11.10;;;;;;;17.72;57.62;99057.07;105732;1279;97953;-67
2022/07/04 02:28:04;;;;;;;21.00;10.70;;;;;;;17.70;57.54;99055.41;105722;1280;111396;-68
2022/07/04 02:30:32;;;;;;;19.80;10.70;;;;;;;17.67;57.80;99057.51;105809;1280;95319;-69
2022/07/04 02:33:03;;;;;;;18.40;10.20;;;;;;;17.66;57.74;99054.43;105868;1279;107505;-68
2022/07/04 02:35:31;;;;;;;20.30;10.10;;;;;;;17.64;57.63;99053.95;105827;1278;98010;-68
2022/07/04 02:37:59;;;;;;;20.60;10.60;;;;;;;17.61;57.85;99055.50;105820;1280;98250;-67
2022/07/04 02:40:27;;;;;;;20.60;10.80;;;;;;;17.60;57.88;99058.12;105816;1278;111840;-69
2022/07/04 02:42:55;;;;;;;21.00;12.20;;;;;;;17.58;57.99;99055.05;105850;1279;97755;-67
2022/07/04 02:45:24;;;;;;;22.90;10.90;;;;;;;17.56;58.00;99055.54;105816;1280;107702;-69
2022/07/04 02:47:53;;;;;;;22.30;10.70;;;;;;;17.56;58.25;99055.95;105804;1278;97911;-68
2022/07/04 02:50:22;;;;;;;22.20;12.00;;;;;;;17.54;58.18;99058.09;105815;1278;97877;-70
2022/07/04 02:52:50;;;;;;;19.40;11.80;;;;;;;17.53;58.40;99057.30;105788;1278;112094;-70
2022/07/04 02:55:20;;;;;;;25.10;11.80;;;;;;;17.53;58.35;99060.77;105901;1278;97926;-69
2022/07/04 02:57:48;;;;;;;19.60;11.60;;;;;;;17.53;58.41;99061.13;105913;1279;108412;-69
2022/07/04 03:00:17;;;;;;;21.50;11.80;;;;;;;17.53;58.54;99059.30;105951;1279;98002;-70
2022/07/04 03:02:47;;;;;;;19.70;11.00;;;;;;;17.52;58.69;99055.05;105933;1279;97842;-69
2022/07/04 03:05:18;;;;;;;19.00;10.90;;;;;;;17.53;58.72;99054.11;105936;1278;112002;-68
2022/07/04 03:07:46;;;;;;;22.80;11.30;;;;;;;17.53;58.66;99049.95;105925;1278;98092;-69
2022/07/04 03:10:16;;;;;;;19.80;10.80;;;;;;;17.53;58.79;99044.60;105849;1279;108749;-64
2022/07/04 03:12:46;;;;;;;23.30;12.10;;;;;;;17.53;58.86;99049.56;105884;1279;95306;-67
2022/07/04 03:15:15;;;;;;;20.50;11.60;;;;;;;17.54;58.94;99047.17;105845;1279;95386;-67
2022/07/04 03:17:44;;;;;;;19.80;10.90;;;;;;;17.55;58.88;99048.00;105771;1280;112160;-67
2022/07/04 03:20:12;;;;;;;20.00;11.30;;;;;;;17.55;59.20;99047.59;105880;1280;97960;-66
2022/07/04 03:22:42;;;;;;;21.00;11.30;;;;;;;17.55;59.21;99046.21;105926;1279;107675;-63
2022/07/04 03:25:12;;;;;;;21.70;11.50;;;;;;;17.56;59.13;99048.95;105990;1277;98018;-67
2022/07/04 03:27:41;;;;;;;23.70;12.80;;;;;;;17.59;59.17;99051.02;105971;1280;97898;-67
2022/07/04 03:30:11;;;;;;;23.20;12.40;;;;;;;17.61;59.24;99057.45;105916;1278;112058;-68
2022/07/04 03:32:39;;;;;;;21.50;11.90;;;;;;;17.63;59.42;99063.48;105965;1280;97931;-67
2022/07/04 03:35:07;;;;;;;21.60;12.20;;;;;;;17.63;59.37;99067.24;105873;1278;109500;-66
2022/07/04 03:37:36;;;;;;;22.50;12.70;;;;;;;17.64;59.54;99064.46;105908;1278;97777;-68
2022/07/04 03:40:06;;;;;;;23.30;13.30;;;;;;;17.64;59.58;99061.71;105963;1278;97876;-68
2022/07/04 03:42:34;;;;;;;23.20;13.40;;;;;;;17.67;59.56;99058.71;105961;1279;112091;-66
2022/07/04 03:45:07;;;;;;;20.70;12.60;;;;;;;17.71;59.73;99056.42;105867;1277;97907;-67
2022/07/04 03:47:34;;;;;;;21.90;12.70;;;;;;;17.74;59.82;99052.46;104485;1280;2036301;-67
2022/07/04 03:50:05;;;;;;;26.50;15.70;;;;;;;17.77;59.69;99054.13;105923;1279;97943;-67
2022/07/04 03:52:35;;;;;;;27.30;16.60;;;;;;;17.80;60.00;99056.91;105939;1279;97863;-67
2022/07/04 03:55:05;;;;;;;25.30;14.60;;;;;;;17.82;59.91;99055.41;105918;1279;112060;-67
2022/07/04 03:57:33;;;;;;;26.00;14.80;;;;;;;17.86;60.09;99059.33;105975;1280;97901;-68
2022/07/04 04:00:04;;;;;;;24.10;15.40;;;;;;;17.92;60.01;99058.96;105902;1279;108459;-68
2022/07/04 04:02:32;;;;;;;24.10;14.80;;;;;;;17.96;60.11;99060.77;105895;1278;96475;-69
2022/07/04 04:07:57;;;;;;;22.10;14.00;;;;;;;18.07;60.31;99069.27;105800;1278;112083;-69
2022/07/04 04:10:30;;;;;;;23.00;14.10;;;;;;;18.10;60.06;99072.13;105746;1279;98452;-68
2022/07/04 04:12:58;;;;;;;25.40;14.30;;;;;;;18.16;60.26;99069.78;105816;1278;107680;-71
2022/07/04 04:15:26;;;;;;;24.50;14.60;;;;;;;18.19;60.27;99073.27;105836;1278;97964;-71
2022/07/04 04:17:54;;;;;;;24.80;14.60;;;;;;;18.21;60.33;99065.16;105862;1279;95209;-68
2022/07/04 04:20:23;;;;;;;26.10;14.20;;;;;;;18.22;60.43;99063.42;105854;1278;111941;-69
2022/07/04 04:22:52;;;;;;;23.20;14.20;;;;;;;18.22;60.31;99062.31;105817;1278;97954;-71
2022/07/04 04:25:20;;;;;;;21.70;13.60;;;;;;;18.22;60.21;99061.38;105806;1279;107785;-70
2022/07/04 04:27:48;;;;;;;21.60;13.70;;;;;;;18.22;60.45;99056.36;105806;1278;97957;-69
2022/07/04 04:30:17;;;;;;;22.60;12.30;;;;;;;18.25;60.50;99053.58;105884;1278;97844;-70
2022/07/04 04:32:45;;;;;;;22.90;12.60;;;;;;;18.27;60.61;99053.65;105749;1279;114166;-70
2022/07/04 04:35:13;;;;;;;23.60;11.80;;;;;;;18.30;60.69;99050.85;105865;1279;95197;-69
2022/07/04 04:37:40;;;;;;;19.80;11.80;;;;;;;18.34;60.89;99047.02;105845;1279;106768;-71
2022/07/04 04:40:11;;;;;;;23.20;12.10;;;;;;;18.39;61.20;99050.52;105851;1278;97982;-68
2022/07/04 04:42:39;;;;;;;22.60;12.60;;;;;;;18.46;61.07;99051.02;105850;1277;97857;-69
2022/07/04 04:45:10;;;;;;;25.40;11.80;;;;;;;18.52;61.24;99051.29;105922;1278;112051;-68
2022/07/04 04:47:38;;;;;;;20.70;11.70;;;;;;;18.58;61.38;99048.66;105849;1280;98003;-70
2022/07/04 04:50:12;;;;;;;19.90;10.80;;;;;;;18.63;61.26;99051.67;105848;1280;109050;-73
2022/07/04 04:52:41;;;;;;;18.90;10.20;;;;;;;18.69;61.44;99050.36;105887;1278;98001;-69
2022/07/04 04:55:11;;;;;;;18.40;10.50;;;;;;;18.76;61.22;99051.27;105816;1280;96608;-69
2022/07/04 04:57:39;;;;;;;19.30;10.80;;;;;;;18.81;61.53;99052.36;105818;1279;111896;-68
2022/07/04 05:00:10;;;;;;;19.10;10.60;;;;;;;18.87;61.54;99055.98;105864;1280;97962;-68
2022/07/04 05:02:38;;;;;;;21.20;11.00;;;;;;;18.94;61.63;99057.11;105865;1280;108786;-72
2022/07/04 05:05:08;;;;;;;19.40;10.50;;;;;;;19.00;61.68;99057.15;105735;1278;97954;-68
2022/07/04 05:07:36;;;;;;;21.90;11.20;;;;;;;19.07;61.60;99054.13;105793;1277;97992;-69
2022/07/04 05:10:07;;;;;;;17.10;9.60;;;;;;;19.13;61.72;99052.12;105817;1280;111936;-69
2022/07/04 05:12:36;;;;;;;17.30;10.10;;;;;;;19.21;61.78;99047.72;105906;1279;95446;-68
2022/07/04 05:15:07;;;;;;;20.40;10.50;;;;;;;19.27;61.80;99043.81;105879;1279;107752;-67
2022/07/04 05:17:37;;;;;;;19.90;11.00;;;;;;;19.32;61.68;99037.28;105821;1279;95299;-68
2022/07/04 05:20:08;;;;;;;17.30;10.00;;;;;;;19.37;61.73;99037.34;105892;1280;97146;-67
2022/07/04 05:22:36;;;;;;;18.20;10.20;;;;;;;19.43;62.01;99032.41;105784;1279;111390;-66
2022/07/04 05:25:07;;;;;;;18.00;9.90;;;;;;;19.50;62.03;99033.92;105857;1278;98060;-67
2022/07/04 05:27:37;;;;;;;19.20;10.00;;;;;;;19.58;62.10;99035.60;105801;1278;108306;-67
2022/07/04 05:30:10;;;;;;;19.60;10.10;;;;;;;19.64;62.12;99034.86;105816;1280;96538;-68
2022/07/04 05:32:40;;;;;;;17.30;9.10;;;;;;;19.71;62.29;99040.20;105906;1278;97992;-68
2022/07/04 05:35:10;;;;;;;18.60;9.60;;;;;;;19.79;62.29;99035.59;105847;1279;111993;-68
2022/07/04 05:37:38;;;;;;;19.90;9.80;;;;;;;19.87;62.20;99037.61;105873;1279;95206;-69
2022/07/04 05:40:11;;;;;;;19.10;9.50;;;;;;;19.94;62.44;99035.19;105880;1277;107764;-68
2022/07/04 05:42:39;;;;;;;18.60;9.60;;;;;;;20.02;62.46;99035.52;105858;1280;97973;-69
2022/07/04 05:45:07;;;;;;;23.40;10.50;;;;;;;20.14;62.56;99037.61;105906;1280;97887;-71
2022/07/04 05:47:35;;;;;;;22.30;10.50;;;;;;;20.29;62.55;99036.89;105971;1280;111821;-71
2022/07/04 05:50:04;;;;;;;22.10;11.30;;;;;;;20.47;62.55;99038.95;106011;1277;97887;-68
2022/07/04 05:52:32;;;;;;;26.30;12.40;;;;;;;20.69;62.41;99040.23;106040;1277;107685;-71
2022/07/04 05:54:59;;;;;;;26.80;13.90;;;;;;;20.88;62.36;99042.64;105961;1280;97964;-71
2022/07/04 05:57:27;;;;;;;27.30;11.80;;;;;;;21.01;62.32;99034.40;105919;1279;98081;-71
2022/07/04 05:59:57;;;;;;;23.50;11.70;;;;;;;21.10;62.32;99032.95;105934;1278;111379;-71
2022/07/04 06:02:25;;;;;;;22.20;11.20;;;;;;;21.18;62.73;99038.20;105872;1278;97954;-69
2022/07/04 06:04:53;;;;;;;21.90;10.50;;;;;;;21.26;62.49;99036.20;105926;1280;107795;-70
2022/07/04 06:07:23;;;;;;;18.60;9.00;;;;;;;21.35;62.34;99041.95;106068;1277;97823;-70
2022/07/04 06:09:51;;;;;;;19.40;8.90;;;;;;;21.50;62.64;99039.89;105937;1277;98031;-71
2022/07/04 06:12:18;;;;;;;17.40;8.70;;;;;;;21.66;62.41;99039.21;105942;1277;111312;-69
2022/07/04 06:14:46;;;;;;;17.60;8.10;;;;;;;21.85;62.49;99037.49;105973;1278;95598;-69
2022/07/04 06:17:16;;;;;;;16.90;8.20;;;;;;;22.02;62.36;99040.93;105977;1277;107780;-71
2022/07/04 06:19:44;;;;;;;17.80;8.30;;;;;;;22.18;62.24;99046.09;105839;1278;97892;-71
2022/07/04 06:22:12;;;;;;;14.20;7.50;;;;;;;22.32;62.52;99048.10;105952;1278;98464;-71
2022/07/04 06:24:42;;;;;;;15.30;7.80;;;;;;;22.49;62.38;99044.95;105865;1277;112952;-69
2022/07/04 06:27:12;;;;;;;16.80;8.70;;;;;;;22.68;62.40;99049.76;105848;1277;97966;-69
2022/07/04 06:29:42;;;;;;;19.30;8.50;;;;;;;22.86;62.20;99047.42;105912;1278;107921;-70
2022/07/04 06:32:10;;;;;;;17.80;8.60;;;;;;;23.10;61.91;99042.66;105936;1279;96413;-68
2022/07/04 06:37:27;;;;;;;19.50;8.90;;;;;;;23.43;62.12;99042.52;105926;1277;111012;-71
2022/07/04 06:40:07;;;;;;;19.60;8.70;;;;;;;23.57;62.15;99043.00;105997;1277;97923;-69
2022/07/04 06:42:34;;;;;;;22.00;8.70;;;;;;;23.70;61.99;99044.31;105866;1277;106490;-70
2022/07/04 06:45:03;;;;;;;16.30;7.60;;;;;;;23.85;61.91;99040.83;105875;1277;97874;-70
2022/07/04 06:47:31;;;;;;;14.60;7.70;;;;;;;24.02;61.84;99038.31;105939;1277;98641;-71
2022/07/04 06:50:01;;;;;;;19.70;8.10;;;;;;;24.21;61.72;99034.66;105872;1277;111936;-71
2022/07/04 06:52:49;;;;;;;18.10;7.50;;;;;;;24.43;61.72;99032.04;105906;1277;98008;-68
2022/07/04 06:55:20;;;;;;;15.50;7.00;;;;;;;24.63;61.62;99027.42;105923;1277;108504;-69
2022/07/04 06:57:48;;;;;;;17.90;7.80;;;;;;;24.84;61.57;99029.64;105962;1277;97963;-67
2022/07/04 07:00:17;;;;;;;17.10;8.30;;;;;;;25.06;61.29;99028.13;105904;1277;97860;-70
2022/07/04 07:02:50;;;;;;;14.90;7.40;;;;;;;25.27;61.30;99028.36;105952;1277;112688;-68
2022/07/04 07:05:20;;;;;;;17.30;7.70;;;;;;;25.50;61.06;99030.02;105885;1277;97975;-68
2022/07/04 07:08:10;;;;;;;19.60;7.00;;;;;;;25.75;61.00;99024.68;105946;1277;108399;-69
2022/07/04 07:10:37;;;;;;;17.30;7.60;;;;;;;25.96;60.95;99025.30;105991;1277;98062;-68
2022/07/04 07:13:05;;;;;;;16.70;7.60;;;;;;;26.16;61.00;99027.74;105941;1277;95206;-67
2022/07/04 07:15:36;;;;;;;15.80;7.70;;;;;;;26.40;60.84;99028.21;105943;1277;112030;-70
2022/07/04 07:18:06;;;;;;;13.90;6.90;;;;;;;26.67;60.54;99022.33;105861;1277;97912;-68
2022/07/04 07:20:36;;;;;;;16.40;7.30;;;;;;;26.96;60.28;99027.31;105945;1277;107412;-68
2022/07/04 07:23:07;;;;;;;11.80;6.70;;;;;;;27.29;60.41;99024.97;105945;1277;97961;-69
2022/07/04 07:25:35;;;;;;;12.80;7.10;;;;;;;27.76;60.24;99024.13;105888;1277;98002;-70
2022/07/04 07:28:03;;;;;;;15.90;7.30;;;;;;;28.24;59.87;99026.19;105954;1277;111981;-68
2022/07/04 07:30:32;;;;;;;12.60;5.90;;;;;;;28.63;59.59;99027.06;106013;1277;97664;-70
2022/07/04 07:33:00;;;;;;;13.00;6.30;;;;;;;28.99;59.15;99026.63;105928;1277;108386;-69
2022/07/04 07:35:28;;;;;;;12.80;6.10;;;;;;;29.46;59.15;99026.67;105852;1277;98000;-68
2022/07/04 07:37:55;;;;;;;12.50;6.10;;;;;;;30.10;59.15;99022.13;105753;1277;97997;-70
2022/07/04 07:40:23;;;;;;;10.80;5.80;;;;;;;30.75;58.74;99016.52;105703;1277;111427;-68
2022/07/04 07:42:54;;;;;;;11.90;6.30;;;;;;;31.27;58.31;99019.11;105742;1277;96747;-68
2022/07/04 07:45:23;;;;;;;9.30;5.50;;;;;;;31.61;57.31;99020.38;105870;1277;107643;-68
2022/07/04 07:47:51;;;;;;;8.20;5.50;;;;;;;32.04;57.35;99022.14;105830;1277;97950;-67
2022/07/04 07:50:19;;;;;;;17.80;6.20;;;;;;;32.64;56.73;99017.73;107633;1277;96549;-68
2022/07/04 07:52:47;;;;;;;10.00;5.50;;;;;;;33.22;56.11;99013.13;107726;1277;111359;-68
2022/07/04 07:55:15;;;;;;;12.30;5.40;;;;;;;33.90;55.91;99012.75;106167;1277;97968;-67
2022/07/04 07:57:43;;;;;;;9.80;5.40;;;;;;;34.60;55.25;99010.20;106225;1277;108752;-67
2022/07/04 08:00:15;;;;;;;7.80;4.70;;;;;;;35.32;54.36;99009.20;107712;1277;95981;-68
2022/07/04 08:05:54;;;;;;;17.80;5.70;;;;;;;36.30;53.29;99014.22;105914;1277;112064;-66
2022/07/04 08:08:23;;;;;;;8.60;5.20;;;;;;;36.84;53.10;99014.38;105956;1277;98334;-70
2022/07/04 08:10:53;;;;;;;9.50;5.10;;;;;;;37.49;52.63;99006.95;106162;1277;107455;-67
2022/07/04 08:13:21;;;;;;;9.00;5.00;;;;;;;37.91;52.03;99009.11;107747;1277;95883;-68
2022/07/04 08:15:49;;;;;;;11.20;5.10;;;;;;;38.24;51.51;99014.72;106136;1277;97861;-71
2022/07/04 08:18:19;;;;;;;6.20;4.90;;;;;;;38.67;50.83;99016.61;106981;1277;112347;-66
2022/07/04 08:20:47;;;;;;;9.30;4.90;;;;;;;38.99;50.50;99010.88;107739;1277;96566;-66
2022/07/04 08:23:31;;;;;;;8.70;4.90;;;;;;;39.37;49.79;99010.93;106853;1277;107888;-66
2022/07/04 08:26:03;;;;;;;7.30;5.00;;;;;;;39.60;49.11;99015.98;105866;1277;96379;-69
2022/07/04 08:28:33;;;;;;;6.40;4.30;;;;;;;39.66;48.17;99018.16;105993;1277;97967;-67
2022/07/04 08:31:03;;;;;;;7.50;4.50;;;;;;;39.71;47.70;99018.18;105916;1277;112176;-68
2022/07/04 08:33:31;;;;;;;7.50;5.00;;;;;;;39.67;46.85;99017.09;105930;1277;95227;-67
2022/07/04 08:36:05;;;;;;;;;;;;;;;39.66;46.54;99020.11;105885;1278;108588;-67
2022/07/04 08:38:33;;;;;;;8.50;4.70;;;;;;;39.80;46.02;99011.18;105945;1277;96322;-66
2022/07/04 08:41:04;;;;;;;6.50;4.30;;;;;;;39.99;45.79;99014.04;105991;1277;97904;-65
2022/07/04 08:43:36;;;;;;;;;;;;;;;40.13;44.93;99018.43;105899;1277;112317;-67
2022/07/04 08:46:09;;;;;;;8.50;4.80;;;;;;;40.15;44.33;99018.58;105868;1277;96907;-63
2022/07/04 08:48:53;;;;;;;6.30;4.70;;;;;;;40.19;43.71;99023.26;106013;1277;108488;-64
2022/07/04 08:51:43;;;;;;;6.70;4.50;;;;;;;40.13;43.37;99020.71;106016;1277;99531;-66
2022/07/04 08:59:56;;;;;;;7.70;4.90;;;;;;;39.69;41.70;99020.38;105927;1277;97885;-65
2022/07/04 09:02:30;;;;;;;7.80;4.50;;;;;;;39.74;41.11;99019.80;105948;1277;108724;-66
2022/07/04 09:05:00;;;;;;;8.30;4.90;;;;;;;39.72;40.62;99020.60;105838;1278;98004;-66
2022/07/04 09:07:31;;;;;;;7.30;4.90;;;;;;;39.59;40.01;99013.33;105965;1277;97870;-68
2022/07/04 09:10:00;;;;;;;5.60;4.20;;;;;;;39.43;39.69;99014.67;105894;1277;112111;-68
2022/07/04 09:12:28;;;;;;;6.80;4.40;;;;;;;39.44;39.35;99016.22;105841;1278;98404;-67
2022/07/04 09:15:21;;;;;;;10.00;5.00;;;;;;;39.33;38.71;99016.45;105870;1278;108471;-66
2022/07/04 09:17:48;;;;;;;8.50;4.90;;;;;;;39.28;38.45;99017.97;105969;1277;97894;-68
2022/07/04 09:20:21;;;;;;;6.30;4.70;;;;;;;39.40;38.22;99014.61;106005;1277;98002;-67
2022/07/04 09:22:53;;;;;;;8.90;5.20;;;;;;;39.35;37.74;99016.61;105816;1278;112108;-66
2022/07/04 09:25:24;;;;;;;8.40;4.90;;;;;;;39.17;37.44;99016.26;105942;1277;96339;-69
2022/07/04 09:27:56;;;;;;;11.70;5.20;;;;;;;39.00;37.18;99013.63;105931;1277;108357;-67
2022/07/04 09:30:28;;;;;;;14.60;6.00;;;;;;;38.81;36.86;99010.69;105884;1277;97870;-67
2022/07/04 09:33:04;;;;;;;11.00;5.20;;;;;;;38.78;36.76;99012.89;105955;1277;97951;-67
2022/07/04 09:35:35;;;;;;;8.30;5.20;;;;;;;38.84;36.41;99011.15;105889;1277;111466;-66
2022/07/04 09:38:12;;;;;;;10.90;5.60;;;;;;;38.70;36.17;99005.55;105933;1277;95672;-68
2022/07/04 09:43:31;;;;;;;8.80;5.40;;;;;;;37.86;35.29;99005.72;105893;1277;95291;-68
2022/07/04 09:46:01;;;;;;;10.30;5.90;;;;;;;37.67;35.35;99001.54;105952;1281;97904;-68
2022/07/04 09:48:52;;;;;;;10.80;5.70;;;;;;;37.67;35.15;98998.92;106000;1277;112006;-69
2022/07/04 09:51:38;;;;;;;9.00;5.70;;;;;;;37.38;34.74;99007.23;105994;1278;98381;-70
2022/07/04 09:54:25;;;;;;;13.80;6.20;;;;;;;37.19;34.54;99005.23;105954;1277;107749;-68
2022/07/04 09:56:58;;;;;;;12.50;5.90;;;;;;;36.60;34.14;99017.89;106007;1277;97984;-67
2022/07/04 09:59:30;;;;;;;12.80;5.80;;;;;;;35.99;34.00;99015.77;105961;1277;97975;-68
2022/07/04 10:02:11;;;;;;;10.70;6.60;;;;;;;35.58;33.86;99012.69;105997;1278;111528;-67
2022/07/04 10:04:46;;;;;;;10.90;6.10;;;;;;;35.11;33.31;99010.85;106070;1277;98248;-76
2022/07/04 10:07:40;;;;;;;13.50;6.20;;;;;;;34.60;33.41;99016.56;106022;1277;108337;-76
2022/07/04 10:10:27;;;;;;;13.10;6.20;;;;;;;34.21;33.37;99012.80;106005;1277;97916;-76
2022/07/04 10:13:04;;;;;;;10.80;6.40;;;;;;;33.78;33.35;99002.67;106063;1277;97846;-78
2022/07/04 10:15:37;;;;;;;8.40;6.00;;;;;;;33.47;33.10;99002.05;106054;1277;111151;-74
2022/07/04 10:18:07;;;;;;;10.70;6.50;;;;;;;33.21;33.30;99003.64;105989;1278;98922;-76
2022/07/04 10:20:38;;;;;;;13.20;7.30;;;;;;;33.11;33.29;98998.54;106027;1277;107753;-75
2022/07/04 10:23:06;;;;;;;11.70;6.70;;;;;;;32.99;33.15;98999.05;106028;1277;95930;-80
2022/07/04 10:25:51;;;;;;;10.50;6.50;;;;;;;32.85;33.42;99002.70;105893;1278;97986;-76
2022/07/04 10:28:22;;;;;;;11.00;7.20;;;;;;;32.73;33.37;98997.79;105823;1278;111568;-75
2022/07/04 10:30:57;;;;;;;11.60;6.60;;;;;;;32.59;33.31;98991.85;105981;1277;96167;-78
2022/07/04 10:33:29;;;;;;;12.20;6.80;;;;;;;32.55;33.61;98992.04;105936;1278;107563;-77
2022/07/04 10:36:01;;;;;;;11.10;6.80;;;;;;;32.52;33.64;98996.52;105934;1277;97985;-82
2022/07/04 10:38:34;;;;;;;13.10;6.60;;;;;;;32.32;33.21;99007.06;105985;1277;97885;-77
2022/07/04 10:41:05;;;;;;;12.20;7.20;;;;;;;32.02;33.32;99007.44;105954;1277;111421;-75
2022/07/04 10:46:15;;;;;;;13.10;6.70;;;;;;;31.66;33.43;98999.53;105949;1277;107597;-78
2022/07/04 10:48:53;;;;;;;12.60;7.30;;;;;;;31.40;33.32;99001.41;105854;1277;97995;-75
2022/07/04 10:51:52;;;;;;;16.40;7.00;;;;;;;31.15;33.30;99001.48;106006;1277;97903;-76
2022/07/04 10:54:39;;;;;;;13.80;7.10;;;;;;;30.99;33.27;98996.64;105952;1277;111393;-72
2022/07/04 10:57:23;;;;;;;20.30;9.70;;;;;;;30.84;33.33;98990.45;105983;1277;96995;-75
2022/07/04 10:59:54;;;;;;;10.50;6.50;;;;;;;30.81;33.55;98986.60;105983;1277;107737;-73
2022/07/04 11:02:31;;;;;;;13.40;7.40;;;;;;;30.80;33.50;98986.15;105927;1277;95827;-72
2022/07/04 11:05:10;;;;;;;12.60;6.30;;;;;;;30.77;33.53;98990.33;105918;1277;95191;-73
2022/07/04 11:07:40;;;;;;;9.70;6.00;;;;;;;30.73;33.64;98987.89;105974;1277;111532;-71
2022/07/04 11:10:10;;;;;;;11.20;6.10;;;;;;;30.66;33.56;98988.38;105960;1277;97992;-75
2022/07/04 11:12:53;;;;;;;15.60;6.30;;;;;;;30.58;33.67;98984.76;105901;1276;107623;-74
2022/07/04 11:15:24;;;;;;;12.90;6.20;;;;;;;30.60;33.67;98982.32;105931;1277;97880;-74
2022/07/04 11:17:57;;;;;;;12.20;6.70;;;;;;;30.62;33.78;98985.05;105968;1277;97854;-73
2022/07/04 11:20:29;;;;;;;11.10;5.50;;;;;;;30.56;33.59;98982.89;105893;1279;111391;-74
2022/07/04 11:23:07;;;;;;;;;;;;;;;30.48;33.64;98973.56;105960;1277;95928;-72
2022/07/04 11:25:39;;;;;;;12.10;6.80;;;;;;;30.42;33.72;98966.42;105939;1277;107661;-73
2022/07/04 11:28:36;;;;;;;13.40;6.20;;;;;;;30.46;33.71;98967.27;105972;1277;97960;-74
2022/07/04 11:31:14;;;;;;;11.50;6.30;;;;;;;30.45;33.74;98967.75;105893;1277;95403;-74
2022/07/04 11:33:46;;;;;;;11.50;6.60;;;;;;;30.41;33.68;98969.90;105828;1277;111186;-73
2022/07/04 11:36:20;;;;;;;13.70;6.50;;;;;;;30.41;33.75;98973.32;106012;1277;98315;-73
2022/07/04 11:39:04;;;;;;;10.60;6.40;;;;;;;30.43;33.86;98968.77;105997;1277;107688;-76
2022/07/04 11:47:19;;;;;;;11.00;5.80;;;;;;;30.46;33.84;98960.97;106010;1277;112358;-75
2022/07/04 11:49:59;;;;;;;11.30;6.40;;;;;;;30.51;34.00;98954.09;105916;1278;97628;-76
2022/07/04 11:52:54;;;;;;;9.90;5.80;;;;;;;30.60;33.93;98950.98;105943;1277;107737;-70
2022/07/04 11:55:55;;;;;;;8.80;5.60;;;;;;;30.67;33.87;98944.23;105870;1277;97955;-72
2022/07/04 11:58:23;;;;;;;11.70;6.30;;;;;;;30.73;33.97;98943.16;105864;1277;95227;-74